METAR

Letisková meteorologická správa METAR

Meteorologické informácie z ďalších profesionálnych meteorologických staníc SHMÚ zobrazené v tvare zodpovedajúcom pravidlám kódovania správ METAR sú uvedené v položke „METSYN

Informácie o správe METAR

21.11.2017 - 07:30 UTC

METAR LZIB 210730Z 23006KT 6000 RA FEW005 BKN022 OVC040 03/02 Q1015
NOSIG=
METAR LZKZ 210730Z 02002KT 7000 BCFG SCT009 BKN012 M01/M02 Q1015
NOSIG=
METAR LZPP 210730Z 16003KT 9000 -RA OVC007 02/01 Q1015=
METAR LZSL 210730Z 21004KT 8000 -RA FEW010 BKN056 02/00 Q1014=
METAR LZTT 210730Z 03002KT 9999 FEW009 SCT033 BKN084 M01/M03 Q1012
NOSIG=
METAR LZZI 210730Z 26004KT 9999 -RASN FEW005 BKN010 BKN023 01/01
Q1014=

21.11.2017 - 07:00 UTC

METAR LZIB 210700Z 22003KT 7000 -RA FEW010 BKN016 OVC038 03/02 Q1015
NOSIG=
METAR LZKZ 210700Z 01004KT 7000 BCFG BKN010 M01/M02 Q1015 NOSIG=
METAR LZPP 210700Z 13003KT 7000 -RA OVC008 02/01 Q1015=
METAR LZSL 210700Z 22005KT 9000 -RA FEW010 BKN056 01/00 Q1014=
METAR LZTT 210700Z 05002KT 9999 -SN FEW009 BKN100 M02/M03 Q1012
NOSIG=
METAR LZZI 210700Z VRB01KT 9000 -RASN FEW005 BKN013 BKN023 01/00
Q1014=

21.11.2017 - 07:00 UTC

METAR LZPW 210700Z 06001KT 2500 BR SCT004 BKN050
M00/M01 Q1014=

skok na menu ↑


skok na začiatok stránky ↑